sensor_id;sensor_type;location;lat;lon;timestamp;P1;durP1;ratioP1;P2;durP2;ratioP2
74042;SDS011;62384;53.600;10.040;2022-10-30T00:02:15;21.42;;;9.35;;
74042;SDS011;62384;53.600;10.040;2022-10-30T00:04:40;33.38;;;23.88;;
74042;SDS011;62384;53.600;10.040;2022-10-30T00:07:08;26.20;;;11.73;;
74042;SDS011;62384;53.600;10.040;2022-10-30T00:09:34;24.23;;;10.82;;
74042;SDS011;62384;53.600;10.040;2022-10-30T00:11:59;20.20;;;10.05;;
74042;SDS011;62384;53.600;10.040;2022-10-30T00:14:24;25.70;;;11.15;;
74042;SDS011;62384;53.600;10.040;2022-10-30T00:16:50;24.05;;;10.73;;
74042;SDS011;62384;53.600;10.040;2022-10-30T00:19:15;27.88;;;11.10;;
74042;SDS011;62384;53.600;10.040;2022-10-30T00:21:40;22.25;;;10.23;;
74042;SDS011;62384;53.600;10.040;2022-10-30T00:24:05;23.00;;;10.43;;
74042;SDS011;62384;53.600;10.040;2022-10-30T00:26:34;27.67;;;10.27;;
74042;SDS011;62384;53.600;10.040;2022-10-30T00:29:00;23.02;;;10.20;;
74042;SDS011;62384;53.600;10.040;2022-10-30T00:31:28;24.23;;;11.10;;
74042;SDS011;62384;53.600;10.040;2022-10-30T00:34:09;23.77;;;10.88;;
74042;SDS011;62384;53.600;10.040;2022-10-30T00:36:34;26.42;;;11.18;;
74042;SDS011;62384;53.600;10.040;2022-10-30T00:38:59;18.95;;;10.02;;
74042;SDS011;62384;53.600;10.040;2022-10-30T00:41:25;25.52;;;10.48;;
74042;SDS011;62384;53.600;10.040;2022-10-30T00:43:50;25.25;;;10.25;;
74042;SDS011;62384;53.600;10.040;2022-10-30T00:46:35;22.33;;;10.20;;
74042;SDS011;62384;53.600;10.040;2022-10-30T00:51:35;21.88;;;9.30;;
74042;SDS011;62384;53.600;10.040;2022-10-30T00:54:08;19.48;;;9.60;;
74042;SDS011;62384;53.600;10.040;2022-10-30T00:56:34;22.17;;;10.23;;
74042;SDS011;62384;53.600;10.040;2022-10-30T00:59:01;21.55;;;9.80;;
74042;SDS011;62384;53.600;10.040;2022-10-30T01:01:37;20.83;;;9.18;;
74042;SDS011;62384;53.600;10.040;2022-10-30T01:04:09;23.55;;;8.95;;
74042;SDS011;62384;53.600;10.040;2022-10-30T01:06:36;24.42;;;9.48;;
74042;SDS011;62384;53.600;10.040;2022-10-30T01:09:09;18.73;;;9.07;;
74042;SDS011;62384;53.600;10.040;2022-10-30T01:11:38;23.85;;;10.00;;
74042;SDS011;62384;53.600;10.040;2022-10-30T01:14:04;16.58;;;9.07;;
74042;SDS011;62384;53.600;10.040;2022-10-30T01:19:25;21.95;;;9.68;;
74042;SDS011;62384;53.600;10.040;2022-10-30T01:22:22;23.05;;;9.60;;
74042;SDS011;62384;53.600;10.040;2022-10-30T01:30:27;20.52;;;8.95;;
74042;SDS011;62384;53.600;10.040;2022-10-30T01:39:17;22.40;;;9.40;;
74042;SDS011;62384;53.600;10.040;2022-10-30T01:41:59;20.73;;;8.90;;
74042;SDS011;62384;53.600;10.040;2022-10-30T01:44:30;19.52;;;9.35;;
74042;SDS011;62384;53.600;10.040;2022-10-30T01:50:03;18.98;;;8.90;;
74042;SDS011;62384;53.600;10.040;2022-10-30T01:52:53;21.75;;;9.13;;
74042;SDS011;62384;53.600;10.040;2022-10-30T01:55:47;23.42;;;9.50;;
74042;SDS011;62384;53.600;10.040;2022-10-30T01:58:28;20.83;;;9.05;;
74042;SDS011;62384;53.600;10.040;2022-10-30T02:00:58;17.65;;;8.88;;
74042;SDS011;62384;53.600;10.040;2022-10-30T02:03:27;21.25;;;9.18;;
74042;SDS011;62384;53.600;10.040;2022-10-30T02:05:53;23.77;;;9.77;;
74042;SDS011;62384;53.600;10.040;2022-10-30T02:08:19;23.25;;;8.68;;
74042;SDS011;62384;53.600;10.040;2022-10-30T02:10:48;19.33;;;8.80;;
74042;SDS011;62384;53.600;10.040;2022-10-30T02:13:16;19.02;;;8.45;;
74042;SDS011;62384;53.600;10.040;2022-10-30T02:15:44;19.60;;;8.40;;
74042;SDS011;62384;53.600;10.040;2022-10-30T02:18:11;19.20;;;8.93;;
74042;SDS011;62384;53.600;10.040;2022-10-30T02:20:39;21.15;;;8.73;;
74042;SDS011;62384;53.600;10.040;2022-10-30T02:23:05;21.95;;;7.93;;
74042;SDS011;62384;53.600;10.040;2022-10-30T02:25:38;19.88;;;8.82;;
74042;SDS011;62384;53.600;10.040;2022-10-30T02:28:04;21.60;;;8.48;;
74042;SDS011;62384;53.600;10.040;2022-10-30T02:30:29;24.55;;;8.45;;
74042;SDS011;62384;53.600;10.040;2022-10-30T02:32:55;17.83;;;9.35;;
74042;SDS011;62384;53.600;10.040;2022-10-30T02:35:20;19.70;;;9.13;;
74042;SDS011;62384;53.600;10.040;2022-10-30T02:37:46;19.88;;;8.20;;
74042;SDS011;62384;53.600;10.040;2022-10-30T02:40:16;19.13;;;8.57;;
74042;SDS011;62384;53.600;10.040;2022-10-30T02:42:52;17.63;;;8.63;;
74042;SDS011;62384;53.600;10.040;2022-10-30T02:45:18;19.23;;;8.07;;
74042;SDS011;62384;53.600;10.040;2022-10-30T02:47:44;18.90;;;8.50;;
74042;SDS011;62384;53.600;10.040;2022-10-30T02:50:09;17.17;;;7.93;;
74042;SDS011;62384;53.600;10.040;2022-10-30T02:52:35;20.65;;;8.15;;
74042;SDS011;62384;53.600;10.040;2022-10-30T02:55:03;16.70;;;7.95;;
74042;SDS011;62384;53.600;10.040;2022-10-30T02:57:32;19.95;;;8.30;;
74042;SDS011;62384;53.600;10.040;2022-10-30T02:59:59;22.38;;;9.10;;
74042;SDS011;62384;53.600;10.040;2022-10-30T03:02:24;15.52;;;7.35;;
74042;SDS011;62384;53.600;10.040;2022-10-30T03:04:52;17.90;;;7.60;;
74042;SDS011;62384;53.600;10.040;2022-10-30T03:07:26;21.98;;;7.75;;
74042;SDS011;62384;53.600;10.040;2022-10-30T03:09:52;18.90;;;8.02;;
74042;SDS011;62384;53.600;10.040;2022-10-30T03:12:19;21.17;;;8.23;;
74042;SDS011;62384;53.600;10.040;2022-10-30T03:14:44;18.38;;;7.88;;
74042;SDS011;62384;53.600;10.040;2022-10-30T03:17:09;19.52;;;7.70;;
74042;SDS011;62384;53.600;10.040;2022-10-30T03:19:37;20.65;;;7.82;;
74042;SDS011;62384;53.600;10.040;2022-10-30T03:22:04;25.00;;;7.90;;
74042;SDS011;62384;53.600;10.040;2022-10-30T03:24:30;17.23;;;8.90;;
74042;SDS011;62384;53.600;10.040;2022-10-30T03:26:58;19.40;;;7.47;;
74042;SDS011;62384;53.600;10.040;2022-10-30T03:29:23;18.42;;;8.10;;
74042;SDS011;62384;53.600;10.040;2022-10-30T03:31:50;18.00;;;7.28;;
74042;SDS011;62384;53.600;10.040;2022-10-30T03:34:15;18.63;;;7.70;;
74042;SDS011;62384;53.600;10.040;2022-10-30T03:36:49;15.77;;;7.88;;
74042;SDS011;62384;53.600;10.040;2022-10-30T03:39:15;13.10;;;8.10;;
74042;SDS011;62384;53.600;10.040;2022-10-30T03:41:40;21.17;;;8.93;;
74042;SDS011;62384;53.600;10.040;2022-10-30T03:44:10;20.27;;;8.35;;
74042;SDS011;62384;53.600;10.040;2022-10-30T03:46:35;15.57;;;7.65;;
74042;SDS011;62384;53.600;10.040;2022-10-30T03:49:04;14.45;;;6.97;;
74042;SDS011;62384;53.600;10.040;2022-10-30T03:51:32;19.40;;;8.23;;
74042;SDS011;62384;53.600;10.040;2022-10-30T03:53:58;18.00;;;8.25;;
74042;SDS011;62384;53.600;10.040;2022-10-30T03:56:23;18.92;;;8.52;;
74042;SDS011;62384;53.600;10.040;2022-10-30T03:58:48;14.98;;;7.82;;
74042;SDS011;62384;53.600;10.040;2022-10-30T04:01:13;19.95;;;7.50;;
74042;SDS011;62384;53.600;10.040;2022-10-30T04:03:39;19.13;;;7.03;;
74042;SDS011;62384;53.600;10.040;2022-10-30T04:06:04;18.58;;;6.78;;
74042;SDS011;62384;53.600;10.040;2022-10-30T04:08:30;15.27;;;7.80;;
74042;SDS011;62384;53.600;10.040;2022-10-30T04:10:56;18.13;;;8.45;;
74042;SDS011;62384;53.600;10.040;2022-10-30T04:13:24;18.33;;;7.55;;
74042;SDS011;62384;53.600;10.040;2022-10-30T04:15:49;17.80;;;7.70;;
74042;SDS011;62384;53.600;10.040;2022-10-30T04:18:15;19.13;;;8.25;;
74042;SDS011;62384;53.600;10.040;2022-10-30T04:20:41;16.70;;;7.60;;
74042;SDS011;62384;53.600;10.040;2022-10-30T04:23:12;13.85;;;7.03;;
74042;SDS011;62384;53.600;10.040;2022-10-30T04:25:39;15.63;;;7.80;;
74042;SDS011;62384;53.600;10.040;2022-10-30T04:28:04;15.15;;;7.55;;
74042;SDS011;62384;53.600;10.040;2022-10-30T04:30:33;15.38;;;7.28;;
74042;SDS011;62384;53.600;10.040;2022-10-30T04:33:00;13.13;;;6.40;;
74042;SDS011;62384;53.600;10.040;2022-10-30T04:35:31;15.00;;;7.22;;
74042;SDS011;62384;53.600;10.040;2022-10-30T04:38:01;16.02;;;7.80;;
74042;SDS011;62384;53.600;10.040;2022-10-30T04:40:29;15.60;;;8.43;;
74042;SDS011;62384;53.600;10.040;2022-10-30T04:43:08;16.58;;;6.82;;
74042;SDS011;62384;53.600;10.040;2022-10-30T04:45:35;13.93;;;7.15;;
74042;SDS011;62384;53.600;10.040;2022-10-30T04:50:30;13.55;;;6.85;;
74042;SDS011;62384;53.600;10.040;2022-10-30T04:53:03;18.98;;;7.38;;
74042;SDS011;62384;53.600;10.040;2022-10-30T04:55:30;15.25;;;7.40;;
74042;SDS011;62384;53.600;10.040;2022-10-30T04:57:56;14.70;;;6.57;;
74042;SDS011;62384;53.600;10.040;2022-10-30T05:00:23;19.58;;;8.10;;
74042;SDS011;62384;53.600;10.040;2022-10-30T05:02:48;15.38;;;7.30;;
74042;SDS011;62384;53.600;10.040;2022-10-30T05:05:14;15.15;;;7.15;;
74042;SDS011;62384;53.600;10.040;2022-10-30T05:07:40;17.92;;;7.00;;
74042;SDS011;62384;53.600;10.040;2022-10-30T05:10:05;16.00;;;6.90;;
74042;SDS011;62384;53.600;10.040;2022-10-30T05:12:31;18.20;;;7.38;;
74042;SDS011;62384;53.600;10.040;2022-10-30T05:14:56;21.25;;;6.68;;
74042;SDS011;62384;53.600;10.040;2022-10-30T05:17:21;12.07;;;7.22;;
74042;SDS011;62384;53.600;10.040;2022-10-30T05:19:46;15.20;;;7.10;;
74042;SDS011;62384;53.600;10.040;2022-10-30T05:22:12;14.95;;;6.40;;
74042;SDS011;62384;53.600;10.040;2022-10-30T05:24:40;11.68;;;5.93;;
74042;SDS011;62384;53.600;10.040;2022-10-30T05:27:05;15.75;;;7.03;;
74042;SDS011;62384;53.600;10.040;2022-10-30T05:29:31;20.25;;;7.60;;
74042;SDS011;62384;53.600;10.040;2022-10-30T05:32:05;18.13;;;7.38;;
74042;SDS011;62384;53.600;10.040;2022-10-30T05:34:31;15.63;;;7.53;;
74042;SDS011;62384;53.600;10.040;2022-10-30T05:36:56;14.38;;;6.88;;
74042;SDS011;62384;53.600;10.040;2022-10-30T05:39:21;20.65;;;7.15;;
74042;SDS011;62384;53.600;10.040;2022-10-30T05:41:49;12.07;;;6.75;;
74042;SDS011;62384;53.600;10.040;2022-10-30T05:44:14;17.23;;;7.95;;
74042;SDS011;62384;53.600;10.040;2022-10-30T05:46:40;21.58;;;8.05;;
74042;SDS011;62384;53.600;10.040;2022-10-30T05:49:06;19.23;;;7.47;;
74042;SDS011;62384;53.600;10.040;2022-10-30T05:51:31;14.52;;;6.43;;
74042;SDS011;62384;53.600;10.040;2022-10-30T05:53:57;12.93;;;6.43;;
74042;SDS011;62384;53.600;10.040;2022-10-30T05:56:24;15.15;;;7.05;;
74042;SDS011;62384;53.600;10.040;2022-10-30T05:58:50;16.27;;;7.32;;
74042;SDS011;62384;53.600;10.040;2022-10-30T06:01:15;14.63;;;7.03;;
74042;SDS011;62384;53.600;10.040;2022-10-30T06:03:41;14.57;;;7.03;;
74042;SDS011;62384;53.600;10.040;2022-10-30T06:06:07;14.65;;;6.70;;
74042;SDS011;62384;53.600;10.040;2022-10-30T06:08:36;17.42;;;7.97;;
74042;SDS011;62384;53.600;10.040;2022-10-30T06:11:01;14.50;;;7.45;;
74042;SDS011;62384;53.600;10.040;2022-10-30T06:13:29;20.00;;;8.70;;
74042;SDS011;62384;53.600;10.040;2022-10-30T06:16:00;19.70;;;8.00;;
74042;SDS011;62384;53.600;10.040;2022-10-30T06:18:25;14.18;;;7.63;;
74042;SDS011;62384;53.600;10.040;2022-10-30T06:20:50;17.48;;;7.15;;
74042;SDS011;62384;53.600;10.040;2022-10-30T06:23:18;17.40;;;7.65;;
74042;SDS011;62384;53.600;10.040;2022-10-30T06:25:43;16.35;;;7.70;;
74042;SDS011;62384;53.600;10.040;2022-10-30T06:28:09;16.73;;;7.60;;
74042;SDS011;62384;53.600;10.040;2022-10-30T06:30:35;16.30;;;7.75;;
74042;SDS011;62384;53.600;10.040;2022-10-30T06:33:01;14.57;;;6.88;;
74042;SDS011;62384;53.600;10.040;2022-10-30T06:35:28;21.40;;;7.97;;
74042;SDS011;62384;53.600;10.040;2022-10-30T06:37:54;14.55;;;7.47;;
74042;SDS011;62384;53.600;10.040;2022-10-30T06:40:20;17.02;;;7.55;;
74042;SDS011;62384;53.600;10.040;2022-10-30T06:42:48;16.83;;;7.70;;
74042;SDS011;62384;53.600;10.040;2022-10-30T06:45:15;17.40;;;7.05;;
74042;SDS011;62384;53.600;10.040;2022-10-30T06:47:45;24.63;;;7.90;;
74042;SDS011;62384;53.600;10.040;2022-10-30T06:50:12;18.38;;;7.95;;
74042;SDS011;62384;53.600;10.040;2022-10-30T06:52:40;17.27;;;7.72;;
74042;SDS011;62384;53.600;10.040;2022-10-30T06:55:06;17.20;;;8.23;;
74042;SDS011;62384;53.600;10.040;2022-10-30T06:57:32;16.55;;;7.43;;
74042;SDS011;62384;53.600;10.040;2022-10-30T06:59:58;13.20;;;7.38;;
74042;SDS011;62384;53.600;10.040;2022-10-30T07:02:23;15.18;;;7.60;;
74042;SDS011;62384;53.600;10.040;2022-10-30T07:04:48;17.58;;;7.30;;
74042;SDS011;62384;53.600;10.040;2022-10-30T07:07:14;17.98;;;8.05;;
74042;SDS011;62384;53.600;10.040;2022-10-30T07:09:39;24.83;;;7.40;;
74042;SDS011;62384;53.600;10.040;2022-10-30T07:12:05;11.40;;;6.70;;
74042;SDS011;62384;53.600;10.040;2022-10-30T07:14:31;14.95;;;7.28;;
74042;SDS011;62384;53.600;10.040;2022-10-30T07:16:56;15.20;;;7.75;;
74042;SDS011;62384;53.600;10.040;2022-10-30T07:19:21;15.50;;;6.68;;
74042;SDS011;62384;53.600;10.040;2022-10-30T07:21:47;17.73;;;7.38;;
74042;SDS011;62384;53.600;10.040;2022-10-30T07:24:13;16.90;;;7.82;;
74042;SDS011;62384;53.600;10.040;2022-10-30T07:26:38;18.27;;;7.03;;
74042;SDS011;62384;53.600;10.040;2022-10-30T07:29:04;14.25;;;6.97;;
74042;SDS011;62384;53.600;10.040;2022-10-30T07:31:29;16.33;;;7.10;;
74042;SDS011;62384;53.600;10.040;2022-10-30T07:33:55;17.00;;;8.05;;
74042;SDS011;62384;53.600;10.040;2022-10-30T07:36:20;16.33;;;7.13;;
74042;SDS011;62384;53.600;10.040;2022-10-30T07:38:51;18.63;;;8.18;;
74042;SDS011;62384;53.600;10.040;2022-10-30T07:41:17;17.45;;;7.05;;
74042;SDS011;62384;53.600;10.040;2022-10-30T07:43:43;14.10;;;7.53;;
74042;SDS011;62384;53.600;10.040;2022-10-30T07:46:10;17.48;;;6.97;;
74042;SDS011;62384;53.600;10.040;2022-10-30T07:48:38;24.05;;;7.60;;
74042;SDS011;62384;53.600;10.040;2022-10-30T07:51:04;15.88;;;7.55;;
74042;SDS011;62384;53.600;10.040;2022-10-30T07:53:30;14.27;;;6.90;;
74042;SDS011;62384;53.600;10.040;2022-10-30T07:56:01;18.15;;;7.30;;
74042;SDS011;62384;53.600;10.040;2022-10-30T07:58:26;18.98;;;7.72;;
74042;SDS011;62384;53.600;10.040;2022-10-30T08:00:52;14.70;;;7.22;;
74042;SDS011;62384;53.600;10.040;2022-10-30T08:03:17;15.60;;;7.38;;
74042;SDS011;62384;53.600;10.040;2022-10-30T08:05:42;16.20;;;6.43;;
74042;SDS011;62384;53.600;10.040;2022-10-30T08:08:09;17.80;;;7.07;;
74042;SDS011;62384;53.600;10.040;2022-10-30T08:10:34;15.82;;;7.13;;
74042;SDS011;62384;53.600;10.040;2022-10-30T08:13:00;15.95;;;7.38;;
74042;SDS011;62384;53.600;10.040;2022-10-30T08:15:26;15.10;;;7.50;;
74042;SDS011;62384;53.600;10.040;2022-10-30T08:17:52;17.30;;;6.43;;
74042;SDS011;62384;53.600;10.040;2022-10-30T08:20:18;18.92;;;7.32;;
74042;SDS011;62384;53.600;10.040;2022-10-30T08:22:50;16.30;;;7.55;;
74042;SDS011;62384;53.600;10.040;2022-10-30T08:25:18;16.33;;;7.50;;
74042;SDS011;62384;53.600;10.040;2022-10-30T08:27:48;15.45;;;7.38;;
74042;SDS011;62384;53.600;10.040;2022-10-30T08:30:15;14.10;;;6.88;;
74042;SDS011;62384;53.600;10.040;2022-10-30T08:32:41;12.23;;;7.47;;
74042;SDS011;62384;53.600;10.040;2022-10-30T08:35:06;15.15;;;7.88;;
74042;SDS011;62384;53.600;10.040;2022-10-30T08:37:32;17.95;;;7.32;;
74042;SDS011;62384;53.600;10.040;2022-10-30T08:39:57;17.08;;;7.30;;
74042;SDS011;62384;53.600;10.040;2022-10-30T08:42:22;15.30;;;6.63;;
74042;SDS011;62384;53.600;10.040;2022-10-30T08:44:48;12.48;;;6.80;;
74042;SDS011;62384;53.600;10.040;2022-10-30T08:47:13;18.05;;;6.97;;
74042;SDS011;62384;53.600;10.040;2022-10-30T08:49:38;18.55;;;7.38;;
74042;SDS011;62384;53.600;10.040;2022-10-30T08:52:06;15.65;;;7.80;;
74042;SDS011;62384;53.600;10.040;2022-10-30T08:54:33;15.70;;;7.30;;
74042;SDS011;62384;53.600;10.040;2022-10-30T08:56:58;15.25;;;6.82;;
74042;SDS011;62384;53.600;10.040;2022-10-30T08:59:23;18.98;;;7.30;;
74042;SDS011;62384;53.600;10.040;2022-10-30T09:01:49;13.35;;;6.90;;
74042;SDS011;62384;53.600;10.040;2022-10-30T09:04:15;14.68;;;7.68;;
74042;SDS011;62384;53.600;10.040;2022-10-30T09:06:40;21.30;;;8.32;;
74042;SDS011;62384;53.600;10.040;2022-10-30T09:09:06;14.43;;;7.20;;
74042;SDS011;62384;53.600;10.040;2022-10-30T09:11:34;16.45;;;8.25;;
74042;SDS011;62384;53.600;10.040;2022-10-30T09:13:59;19.65;;;7.05;;
74042;SDS011;62384;53.600;10.040;2022-10-30T09:16:25;13.73;;;7.57;;
74042;SDS011;62384;53.600;10.040;2022-10-30T09:18:55;15.27;;;6.35;;
74042;SDS011;62384;53.600;10.040;2022-10-30T09:21:20;20.52;;;6.78;;
74042;SDS011;62384;53.600;10.040;2022-10-30T09:23:46;15.73;;;6.22;;
74042;SDS011;62384;53.600;10.040;2022-10-30T09:26:11;15.20;;;6.93;;
74042;SDS011;62384;53.600;10.040;2022-10-30T09:28:39;14.05;;;6.03;;
74042;SDS011;62384;53.600;10.040;2022-10-30T09:31:05;15.30;;;6.90;;
74042;SDS011;62384;53.600;10.040;2022-10-30T09:33:30;17.67;;;6.70;;
74042;SDS011;62384;53.600;10.040;2022-10-30T09:35:56;13.02;;;6.00;;
74042;SDS011;62384;53.600;10.040;2022-10-30T09:38:21;15.75;;;5.88;;
74042;SDS011;62384;53.600;10.040;2022-10-30T09:44:00;16.50;;;6.47;;
74042;SDS011;62384;53.600;10.040;2022-10-30T09:52:21;13.27;;;4.90;;
74042;SDS011;62384;53.600;10.040;2022-10-30T09:54:54;11.88;;;5.97;;
74042;SDS011;62384;53.600;10.040;2022-10-30T10:00:10;11.00;;;5.18;;
74042;SDS011;62384;53.600;10.040;2022-10-30T10:05:52;13.25;;;4.93;;
74042;SDS011;62384;53.600;10.040;2022-10-30T10:08:22;9.68;;;5.03;;
74042;SDS011;62384;53.600;10.040;2022-10-30T10:10:54;18.35;;;5.25;;
74042;SDS011;62384;53.600;10.040;2022-10-30T10:16:32;13.25;;;5.18;;
74042;SDS011;62384;53.600;10.040;2022-10-30T10:21:32;13.73;;;5.03;;
74042;SDS011;62384;53.600;10.040;2022-10-30T10:24:02;17.25;;;5.00;;
74042;SDS011;62384;53.600;10.040;2022-10-30T10:26:29;15.57;;;4.65;;
74042;SDS011;62384;53.600;10.040;2022-10-30T10:29:01;9.25;;;3.90;;
74042;SDS011;62384;53.600;10.040;2022-10-30T10:37:57;9.57;;;4.90;;
74042;SDS011;62384;53.600;10.040;2022-10-30T10:43:18;15.00;;;4.45;;
74042;SDS011;62384;53.600;10.040;2022-10-30T10:48:57;10.73;;;4.53;;
74042;SDS011;62384;53.600;10.040;2022-10-30T10:51:32;13.75;;;5.30;;
74042;SDS011;62384;53.600;10.040;2022-10-30T10:54:10;14.18;;;5.45;;
74042;SDS011;62384;53.600;10.040;2022-10-30T10:56:39;16.65;;;5.32;;
74042;SDS011;62384;53.600;10.040;2022-10-30T10:59:51;13.57;;;5.63;;
74042;SDS011;62384;53.600;10.040;2022-10-30T11:02:13;12.13;;;5.47;;
74042;SDS011;62384;53.600;10.040;2022-10-30T11:04:52;13.98;;;5.28;;
74042;SDS011;62384;53.600;10.040;2022-10-30T11:07:25;15.32;;;5.82;;
74042;SDS011;62384;53.600;10.040;2022-10-30T11:09:54;17.40;;;5.45;;
74042;SDS011;62384;53.600;10.040;2022-10-30T11:12:26;16.75;;;5.53;;
74042;SDS011;62384;53.600;10.040;2022-10-30T11:18:09;12.38;;;5.10;;
74042;SDS011;62384;53.600;10.040;2022-10-30T11:20:43;15.57;;;5.10;;
74042;SDS011;62384;53.600;10.040;2022-10-30T11:34:24;13.85;;;5.57;;
74042;SDS011;62384;53.600;10.040;2022-10-30T11:36:59;19.88;;;5.47;;
74042;SDS011;62384;53.600;10.040;2022-10-30T11:39:26;16.60;;;4.55;;
74042;SDS011;62384;53.600;10.040;2022-10-30T11:42:10;19.50;;;6.03;;
74042;SDS011;62384;53.600;10.040;2022-10-30T11:44:47;14.85;;;5.50;;
74042;SDS011;62384;53.600;10.040;2022-10-30T11:47:14;12.15;;;4.35;;
74042;SDS011;62384;53.600;10.040;2022-10-30T11:50:00;11.15;;;4.97;;
74042;SDS011;62384;53.600;10.040;2022-10-30T11:52:28;12.10;;;5.22;;
74042;SDS011;62384;53.600;10.040;2022-10-30T11:55:02;14.75;;;5.50;;
74042;SDS011;62384;53.600;10.040;2022-10-30T11:57:43;11.45;;;4.50;;
74042;SDS011;62384;53.600;10.040;2022-10-30T12:02:43;20.15;;;5.55;;
74042;SDS011;62384;53.600;10.040;2022-10-30T12:08:14;10.40;;;4.38;;
74042;SDS011;62384;53.600;10.040;2022-10-30T12:11:00;13.18;;;4.75;;
74042;SDS011;62384;53.600;10.040;2022-10-30T12:13:30;16.58;;;5.07;;
74042;SDS011;62384;53.600;10.040;2022-10-30T12:16:12;11.10;;;4.80;;
74042;SDS011;62384;53.600;10.040;2022-10-30T12:18:40;20.58;;;4.95;;
74042;SDS011;62384;53.600;10.040;2022-10-30T12:21:06;10.30;;;5.03;;
74042;SDS011;62384;53.600;10.040;2022-10-30T12:23:32;17.42;;;5.35;;
74042;SDS011;62384;53.600;10.040;2022-10-30T12:25:59;15.50;;;5.13;;
74042;SDS011;62384;53.600;10.040;2022-10-30T12:28:31;15.32;;;5.15;;
74042;SDS011;62384;53.600;10.040;2022-10-30T12:36:16;19.15;;;5.55;;
74042;SDS011;62384;53.600;10.040;2022-10-30T12:38:49;14.40;;;4.95;;
74042;SDS011;62384;53.600;10.040;2022-10-30T12:41:30;12.10;;;4.45;;
74042;SDS011;62384;53.600;10.040;2022-10-30T12:44:21;14.73;;;4.75;;
74042;SDS011;62384;53.600;10.040;2022-10-30T12:47:08;12.43;;;4.15;;
74042;SDS011;62384;53.600;10.040;2022-10-30T12:49:51;15.23;;;5.25;;
74042;SDS011;62384;53.600;10.040;2022-10-30T12:52:43;10.73;;;4.63;;
74042;SDS011;62384;53.600;10.040;2022-10-30T12:55:17;18.30;;;5.13;;
74042;SDS011;62384;53.600;10.040;2022-10-30T12:58:02;17.15;;;5.32;;
74042;SDS011;62384;53.600;10.040;2022-10-30T13:00:29;13.90;;;5.40;;
74042;SDS011;62384;53.600;10.040;2022-10-30T13:11:44;15.00;;;5.25;;
74042;SDS011;62384;53.600;10.040;2022-10-30T13:14:30;16.10;;;5.85;;
74042;SDS011;62384;53.600;10.040;2022-10-30T13:17:13;10.93;;;4.63;;
74042;SDS011;62384;53.600;10.040;2022-10-30T13:19:39;14.25;;;5.18;;
74042;SDS011;62384;53.600;10.040;2022-10-30T13:30:25;14.30;;;5.22;;
74042;SDS011;62384;53.600;10.040;2022-10-30T13:38:39;14.73;;;5.25;;
74042;SDS011;62384;53.600;10.040;2022-10-30T13:46:50;12.63;;;5.75;;
74042;SDS011;62384;53.600;10.040;2022-10-30T13:49:41;17.05;;;6.18;;
74042;SDS011;62384;53.600;10.040;2022-10-30T13:52:18;12.73;;;5.28;;
74042;SDS011;62384;53.600;10.040;2022-10-30T13:55:06;14.30;;;5.25;;
74042;SDS011;62384;53.600;10.040;2022-10-30T14:03:12;9.63;;;5.20;;
74042;SDS011;62384;53.600;10.040;2022-10-30T14:05:43;13.63;;;5.35;;
74042;SDS011;62384;53.600;10.040;2022-10-30T14:11:18;12.50;;;5.30;;
74042;SDS011;62384;53.600;10.040;2022-10-30T14:13:44;20.02;;;5.38;;
74042;SDS011;62384;53.600;10.040;2022-10-30T14:21:42;12.20;;;6.23;;
74042;SDS011;62384;53.600;10.040;2022-10-30T14:24:30;19.23;;;7.35;;
74042;SDS011;62384;53.600;10.040;2022-10-30T14:37:10;12.38;;;5.65;;
74042;SDS011;62384;53.600;10.040;2022-10-30T14:39:42;14.75;;;6.20;;
74042;SDS011;62384;53.600;10.040;2022-10-30T14:42:27;12.32;;;4.88;;
74042;SDS011;62384;53.600;10.040;2022-10-30T14:58:36;10.57;;;4.63;;
74042;SDS011;62384;53.600;10.040;2022-10-30T15:03:33;13.45;;;4.60;;
74042;SDS011;62384;53.600;10.040;2022-10-30T15:14:54;10.60;;;5.55;;
74042;SDS011;62384;53.600;10.040;2022-10-30T15:19:55;15.02;;;6.07;;
74042;SDS011;62384;53.600;10.040;2022-10-30T15:22:23;17.38;;;6.07;;
74042;SDS011;62384;53.600;10.040;2022-10-30T15:24:51;14.50;;;5.97;;
74042;SDS011;62384;53.600;10.040;2022-10-30T15:27:20;18.42;;;5.45;;
74042;SDS011;62384;53.600;10.040;2022-10-30T15:29:49;14.23;;;6.20;;
74042;SDS011;62384;53.600;10.040;2022-10-30T15:32:18;16.23;;;5.57;;
74042;SDS011;62384;53.600;10.040;2022-10-30T15:34:58;14.93;;;6.03;;
74042;SDS011;62384;53.600;10.040;2022-10-30T15:37:27;13.27;;;5.30;;
74042;SDS011;62384;53.600;10.040;2022-10-30T15:40:09;19.55;;;6.95;;
74042;SDS011;62384;53.600;10.040;2022-10-30T15:42:41;16.42;;;6.88;;
74042;SDS011;62384;53.600;10.040;2022-10-30T15:45:11;19.83;;;7.65;;
74042;SDS011;62384;53.600;10.040;2022-10-30T15:47:45;19.52;;;7.97;;
74042;SDS011;62384;53.600;10.040;2022-10-30T15:50:13;17.65;;;8.60;;
74042;SDS011;62384;53.600;10.040;2022-10-30T15:52:40;18.67;;;7.82;;
74042;SDS011;62384;53.600;10.040;2022-10-30T15:55:13;22.10;;;8.50;;
74042;SDS011;62384;53.600;10.040;2022-10-30T15:57:43;22.13;;;7.97;;
74042;SDS011;62384;53.600;10.040;2022-10-30T16:00:30;17.58;;;8.07;;
74042;SDS011;62384;53.600;10.040;2022-10-30T16:03:04;21.10;;;8.65;;
74042;SDS011;62384;53.600;10.040;2022-10-30T16:05:32;19.58;;;8.63;;
74042;SDS011;62384;53.600;10.040;2022-10-30T16:08:01;21.60;;;8.60;;
74042;SDS011;62384;53.600;10.040;2022-10-30T16:10:32;16.75;;;7.35;;
74042;SDS011;62384;53.600;10.040;2022-10-30T16:12:58;21.15;;;7.85;;
74042;SDS011;62384;53.600;10.040;2022-10-30T16:15:31;17.52;;;8.45;;
74042;SDS011;62384;53.600;10.040;2022-10-30T16:20:42;17.40;;;8.50;;
74042;SDS011;62384;53.600;10.040;2022-10-30T16:23:09;21.63;;;9.40;;
74042;SDS011;62384;53.600;10.040;2022-10-30T16:25:36;20.65;;;8.95;;
74042;SDS011;62384;53.600;10.040;2022-10-30T16:28:04;24.92;;;9.52;;
74042;SDS011;62384;53.600;10.040;2022-10-30T16:30:30;18.88;;;9.05;;
74042;SDS011;62384;53.600;10.040;2022-10-30T16:32:57;16.95;;;8.00;;
74042;SDS011;62384;53.600;10.040;2022-10-30T16:35:24;20.58;;;10.05;;
74042;SDS011;62384;53.600;10.040;2022-10-30T16:37:51;22.67;;;8.52;;
74042;SDS011;62384;53.600;10.040;2022-10-30T16:40:22;25.80;;;9.68;;
74042;SDS011;62384;53.600;10.040;2022-10-30T16:42:53;21.23;;;9.82;;
74042;SDS011;62384;53.600;10.040;2022-10-30T16:47:58;19.10;;;8.98;;
74042;SDS011;62384;53.600;10.040;2022-10-30T16:50:32;21.45;;;10.02;;
74042;SDS011;62384;53.600;10.040;2022-10-30T16:53:15;21.10;;;8.93;;
74042;SDS011;62384;53.600;10.040;2022-10-30T16:55:44;20.67;;;9.68;;
74042;SDS011;62384;53.600;10.040;2022-10-30T16:58:11;19.95;;;9.35;;
74042;SDS011;62384;53.600;10.040;2022-10-30T17:00:47;25.05;;;10.63;;
74042;SDS011;62384;53.600;10.040;2022-10-30T17:03:41;23.50;;;9.90;;
74042;SDS011;62384;53.600;10.040;2022-10-30T17:09:08;26.13;;;11.23;;
74042;SDS011;62384;53.600;10.040;2022-10-30T17:11:45;25.92;;;10.63;;
74042;SDS011;62384;53.600;10.040;2022-10-30T17:14:23;18.73;;;9.38;;
74042;SDS011;62384;53.600;10.040;2022-10-30T17:16:53;29.75;;;11.05;;
74042;SDS011;62384;53.600;10.040;2022-10-30T17:21:54;20.92;;;10.45;;
74042;SDS011;62384;53.600;10.040;2022-10-30T17:24:31;26.25;;;10.45;;
74042;SDS011;62384;53.600;10.040;2022-10-30T17:26:59;23.63;;;11.07;;